Terminal Aerodrome Forecast
Issued by NWS

Home | Current Version | Previous Version | Text Only | Print | Product List | Glossary On
Versions: 1 2 3 4 5 6 7 8 9 10 11 12 13 14
000
FTUS45 KPSR 301725
TAFIPL
TAF
KIPL 301725Z 3018/0118 16012KT P6SM FEW150 BKN250
     FM302000 18012KT P6SM VCSH BKN120 BKN200
     FM010100 23010KT P6SM SCT100 BKN250
     FM011000 VRB05KT P6SM VCSH BKN090 BKN140=

USA.gov is the U.S. government's official web portal to all federal, state and local government web resources and services.